sensor_id;sensor_type;location;lat;lon;timestamp;P1;durP1;ratioP1;P2;durP2;ratioP2
9942;SDS011;5010;45.080;7.634;2024-01-16T00:00:39;14.85;;;6.88;;
9942;SDS011;5010;45.080;7.634;2024-01-16T00:03:08;12.77;;;6.90;;
9942;SDS011;5010;45.080;7.634;2024-01-16T00:05:39;12.00;;;6.18;;
9942;SDS011;5010;45.080;7.634;2024-01-16T00:08:06;10.20;;;6.40;;
9942;SDS011;5010;45.080;7.634;2024-01-16T00:10:34;8.45;;;4.15;;
9942;SDS011;5010;45.080;7.634;2024-01-16T00:13:02;8.30;;;4.32;;
9942;SDS011;5010;45.080;7.634;2024-01-16T00:15:30;8.43;;;3.95;;
9942;SDS011;5010;45.080;7.634;2024-01-16T00:17:58;10.00;;;6.95;;
9942;SDS011;5010;45.080;7.634;2024-01-16T00:20:27;7.20;;;4.05;;
9942;SDS011;5010;45.080;7.634;2024-01-16T00:22:54;7.40;;;4.25;;
9942;SDS011;5010;45.080;7.634;2024-01-16T00:25:22;7.70;;;3.20;;
9942;SDS011;5010;45.080;7.634;2024-01-16T00:27:50;7.38;;;3.30;;
9942;SDS011;5010;45.080;7.634;2024-01-16T00:30:18;6.85;;;3.45;;
9942;SDS011;5010;45.080;7.634;2024-01-16T00:32:45;5.85;;;2.88;;
9942;SDS011;5010;45.080;7.634;2024-01-16T00:35:13;4.15;;;1.92;;
9942;SDS011;5010;45.080;7.634;2024-01-16T00:37:43;5.93;;;2.10;;
9942;SDS011;5010;45.080;7.634;2024-01-16T00:40:11;6.38;;;3.08;;
9942;SDS011;5010;45.080;7.634;2024-01-16T00:42:38;4.72;;;1.95;;
9942;SDS011;5010;45.080;7.634;2024-01-16T00:45:06;5.68;;;2.28;;
9942;SDS011;5010;45.080;7.634;2024-01-16T00:47:34;3.67;;;1.70;;
9942;SDS011;5010;45.080;7.634;2024-01-16T00:50:02;4.40;;;1.85;;
9942;SDS011;5010;45.080;7.634;2024-01-16T00:52:30;4.85;;;2.33;;
9942;SDS011;5010;45.080;7.634;2024-01-16T00:54:59;6.63;;;2.50;;
9942;SDS011;5010;45.080;7.634;2024-01-16T00:57:28;6.05;;;1.80;;
9942;SDS011;5010;45.080;7.634;2024-01-16T00:59:56;5.35;;;2.72;;
9942;SDS011;5010;45.080;7.634;2024-01-16T01:02:23;9.95;;;2.83;;
9942;SDS011;5010;45.080;7.634;2024-01-16T01:04:51;3.60;;;1.80;;
9942;SDS011;5010;45.080;7.634;2024-01-16T01:07:19;3.95;;;1.50;;
9942;SDS011;5010;45.080;7.634;2024-01-16T01:09:47;4.80;;;1.60;;
9942;SDS011;5010;45.080;7.634;2024-01-16T01:12:16;5.00;;;1.95;;
9942;SDS011;5010;45.080;7.634;2024-01-16T01:14:44;3.63;;;1.42;;
9942;SDS011;5010;45.080;7.634;2024-01-16T01:17:12;4.88;;;2.00;;
9942;SDS011;5010;45.080;7.634;2024-01-16T01:19:40;5.25;;;1.55;;
9942;SDS011;5010;45.080;7.634;2024-01-16T01:22:08;7.47;;;3.83;;
9942;SDS011;5010;45.080;7.634;2024-01-16T01:24:35;9.18;;;5.47;;
9942;SDS011;5010;45.080;7.634;2024-01-16T01:27:03;19.98;;;9.05;;
9942;SDS011;5010;45.080;7.634;2024-01-16T01:29:33;8.30;;;6.70;;
9942;SDS011;5010;45.080;7.634;2024-01-16T01:32:00;13.93;;;6.30;;
9942;SDS011;5010;45.080;7.634;2024-01-16T01:34:28;10.07;;;4.43;;
9942;SDS011;5010;45.080;7.634;2024-01-16T01:36:56;6.95;;;3.10;;
9942;SDS011;5010;45.080;7.634;2024-01-16T01:39:24;4.35;;;2.00;;
9942;SDS011;5010;45.080;7.634;2024-01-16T01:41:52;4.18;;;1.83;;
9942;SDS011;5010;45.080;7.634;2024-01-16T01:44:21;4.78;;;1.98;;
9942;SDS011;5010;45.080;7.634;2024-01-16T01:46:51;8.68;;;3.25;;
9942;SDS011;5010;45.080;7.634;2024-01-16T01:49:22;5.23;;;2.77;;
9942;SDS011;5010;45.080;7.634;2024-01-16T01:51:51;5.88;;;2.22;;
9942;SDS011;5010;45.080;7.634;2024-01-16T01:54:20;5.85;;;2.00;;
9942;SDS011;5010;45.080;7.634;2024-01-16T01:56:49;5.10;;;2.50;;
9942;SDS011;5010;45.080;7.634;2024-01-16T01:59:18;4.85;;;2.33;;
9942;SDS011;5010;45.080;7.634;2024-01-16T02:01:46;5.28;;;2.90;;
9942;SDS011;5010;45.080;7.634;2024-01-16T02:04:19;7.13;;;3.00;;
9942;SDS011;5010;45.080;7.634;2024-01-16T02:06:48;4.97;;;2.42;;
9942;SDS011;5010;45.080;7.634;2024-01-16T02:09:16;7.05;;;2.28;;
9942;SDS011;5010;45.080;7.634;2024-01-16T02:11:44;8.32;;;3.05;;
9942;SDS011;5010;45.080;7.634;2024-01-16T02:14:12;5.70;;;3.20;;
9942;SDS011;5010;45.080;7.634;2024-01-16T02:16:40;10.70;;;3.08;;
9942;SDS011;5010;45.080;7.634;2024-01-16T02:19:10;8.90;;;2.60;;
9942;SDS011;5010;45.080;7.634;2024-01-16T02:21:41;7.82;;;4.70;;
9942;SDS011;5010;45.080;7.634;2024-01-16T02:24:13;7.53;;;2.92;;
9942;SDS011;5010;45.080;7.634;2024-01-16T02:26:43;6.40;;;3.00;;
9942;SDS011;5010;45.080;7.634;2024-01-16T02:29:11;8.48;;;2.80;;
9942;SDS011;5010;45.080;7.634;2024-01-16T02:31:41;7.78;;;3.92;;
9942;SDS011;5010;45.080;7.634;2024-01-16T02:34:09;6.70;;;2.97;;
9942;SDS011;5010;45.080;7.634;2024-01-16T02:36:37;8.70;;;3.95;;
9942;SDS011;5010;45.080;7.634;2024-01-16T02:39:05;7.15;;;2.85;;
9942;SDS011;5010;45.080;7.634;2024-01-16T02:41:34;5.85;;;3.58;;
9942;SDS011;5010;45.080;7.634;2024-01-16T02:44:03;4.63;;;2.55;;
9942;SDS011;5010;45.080;7.634;2024-01-16T02:46:30;6.90;;;2.72;;
9942;SDS011;5010;45.080;7.634;2024-01-16T02:48:59;7.93;;;3.88;;
9942;SDS011;5010;45.080;7.634;2024-01-16T02:51:27;4.90;;;2.85;;
9942;SDS011;5010;45.080;7.634;2024-01-16T02:53:55;5.00;;;2.70;;
9942;SDS011;5010;45.080;7.634;2024-01-16T02:56:22;6.63;;;3.60;;
9942;SDS011;5010;45.080;7.634;2024-01-16T02:58:52;6.47;;;3.10;;
9942;SDS011;5010;45.080;7.634;2024-01-16T03:01:19;9.02;;;3.60;;
9942;SDS011;5010;45.080;7.634;2024-01-16T03:03:47;7.53;;;4.30;;
9942;SDS011;5010;45.080;7.634;2024-01-16T03:06:21;8.20;;;2.75;;
9942;SDS011;5010;45.080;7.634;2024-01-16T03:08:50;6.90;;;3.80;;
9942;SDS011;5010;45.080;7.634;2024-01-16T03:11:17;12.60;;;2.78;;
9942;SDS011;5010;45.080;7.634;2024-01-16T03:13:45;8.65;;;3.45;;
9942;SDS011;5010;45.080;7.634;2024-01-16T03:16:16;6.68;;;3.58;;
9942;SDS011;5010;45.080;7.634;2024-01-16T03:18:44;6.05;;;2.83;;
9942;SDS011;5010;45.080;7.634;2024-01-16T03:21:13;4.78;;;2.67;;
9942;SDS011;5010;45.080;7.634;2024-01-16T03:23:41;6.68;;;2.92;;
9942;SDS011;5010;45.080;7.634;2024-01-16T03:26:12;6.93;;;3.17;;
9942;SDS011;5010;45.080;7.634;2024-01-16T03:28:40;5.13;;;2.47;;
9942;SDS011;5010;45.080;7.634;2024-01-16T03:31:08;5.80;;;2.30;;
9942;SDS011;5010;45.080;7.634;2024-01-16T03:33:37;7.60;;;3.30;;
9942;SDS011;5010;45.080;7.634;2024-01-16T03:36:07;6.63;;;2.30;;
9942;SDS011;5010;45.080;7.634;2024-01-16T03:38:36;4.80;;;2.78;;
9942;SDS011;5010;45.080;7.634;2024-01-16T03:41:04;4.85;;;2.20;;
9942;SDS011;5010;45.080;7.634;2024-01-16T03:43:33;5.15;;;2.50;;
9942;SDS011;5010;45.080;7.634;2024-01-16T03:46:01;3.95;;;1.90;;
9942;SDS011;5010;45.080;7.634;2024-01-16T03:48:29;5.75;;;2.42;;
9942;SDS011;5010;45.080;7.634;2024-01-16T03:50:59;4.30;;;1.65;;
9942;SDS011;5010;45.080;7.634;2024-01-16T03:53:27;4.80;;;2.28;;
9942;SDS011;5010;45.080;7.634;2024-01-16T03:55:55;5.03;;;2.63;;
9942;SDS011;5010;45.080;7.634;2024-01-16T03:58:23;4.50;;;1.95;;
9942;SDS011;5010;45.080;7.634;2024-01-16T04:00:51;3.50;;;1.50;;
9942;SDS011;5010;45.080;7.634;2024-01-16T04:03:18;3.72;;;1.67;;
9942;SDS011;5010;45.080;7.634;2024-01-16T04:05:46;3.70;;;1.63;;
9942;SDS011;5010;45.080;7.634;2024-01-16T04:08:16;3.88;;;1.70;;
9942;SDS011;5010;45.080;7.634;2024-01-16T04:10:44;4.85;;;1.83;;
9942;SDS011;5010;45.080;7.634;2024-01-16T04:13:12;4.15;;;1.98;;
9942;SDS011;5010;45.080;7.634;2024-01-16T04:15:40;5.65;;;1.48;;
9942;SDS011;5010;45.080;7.634;2024-01-16T04:18:08;4.93;;;1.60;;
9942;SDS011;5010;45.080;7.634;2024-01-16T04:20:36;4.13;;;1.70;;
9942;SDS011;5010;45.080;7.634;2024-01-16T04:23:03;4.38;;;1.50;;
9942;SDS011;5010;45.080;7.634;2024-01-16T04:25:33;4.30;;;1.80;;
9942;SDS011;5010;45.080;7.634;2024-01-16T04:28:00;5.25;;;2.28;;
9942;SDS011;5010;45.080;7.634;2024-01-16T04:30:28;4.57;;;1.50;;
9942;SDS011;5010;45.080;7.634;2024-01-16T04:32:56;4.85;;;1.75;;
9942;SDS011;5010;45.080;7.634;2024-01-16T04:35:24;3.30;;;1.30;;
9942;SDS011;5010;45.080;7.634;2024-01-16T04:37:52;4.15;;;1.85;;
9942;SDS011;5010;45.080;7.634;2024-01-16T04:40:20;3.70;;;1.40;;
9942;SDS011;5010;45.080;7.634;2024-01-16T04:42:49;4.05;;;1.70;;
9942;SDS011;5010;45.080;7.634;2024-01-16T04:45:17;3.90;;;1.88;;
9942;SDS011;5010;45.080;7.634;2024-01-16T04:47:45;4.45;;;1.75;;
9942;SDS011;5010;45.080;7.634;2024-01-16T04:50:12;7.15;;;1.88;;
9942;SDS011;5010;45.080;7.634;2024-01-16T04:52:40;3.65;;;1.65;;
9942;SDS011;5010;45.080;7.634;2024-01-16T04:55:08;4.10;;;1.50;;
9942;SDS011;5010;45.080;7.634;2024-01-16T04:57:36;3.67;;;1.88;;
9942;SDS011;5010;45.080;7.634;2024-01-16T05:00:06;3.95;;;2.10;;
9942;SDS011;5010;45.080;7.634;2024-01-16T05:02:35;5.35;;;1.83;;
9942;SDS011;5010;45.080;7.634;2024-01-16T05:05:03;4.72;;;1.33;;
9942;SDS011;5010;45.080;7.634;2024-01-16T05:07:33;3.97;;;1.95;;
9942;SDS011;5010;45.080;7.634;2024-01-16T05:10:01;4.85;;;1.98;;
9942;SDS011;5010;45.080;7.634;2024-01-16T05:12:30;6.05;;;2.05;;
9942;SDS011;5010;45.080;7.634;2024-01-16T05:14:58;4.35;;;1.95;;
9942;SDS011;5010;45.080;7.634;2024-01-16T05:17:27;4.55;;;1.67;;
9942;SDS011;5010;45.080;7.634;2024-01-16T05:19:55;4.43;;;2.05;;
9942;SDS011;5010;45.080;7.634;2024-01-16T05:22:23;4.15;;;1.60;;
9942;SDS011;5010;45.080;7.634;2024-01-16T05:24:51;4.35;;;2.22;;
9942;SDS011;5010;45.080;7.634;2024-01-16T05:27:19;9.38;;;4.25;;
9942;SDS011;5010;45.080;7.634;2024-01-16T05:29:47;15.20;;;8.30;;
9942;SDS011;5010;45.080;7.634;2024-01-16T05:32:15;12.93;;;7.93;;
9942;SDS011;5010;45.080;7.634;2024-01-16T05:34:45;13.65;;;7.20;;
9942;SDS011;5010;45.080;7.634;2024-01-16T05:37:13;7.35;;;4.43;;
9942;SDS011;5010;45.080;7.634;2024-01-16T05:39:41;9.23;;;6.10;;
9942;SDS011;5010;45.080;7.634;2024-01-16T05:42:12;14.40;;;8.20;;
9942;SDS011;5010;45.080;7.634;2024-01-16T05:44:41;13.20;;;7.70;;
9942;SDS011;5010;45.080;7.634;2024-01-16T05:47:08;15.93;;;9.35;;
9942;SDS011;5010;45.080;7.634;2024-01-16T05:49:36;22.50;;;12.82;;
9942;SDS011;5010;45.080;7.634;2024-01-16T05:52:06;14.80;;;10.93;;
9942;SDS011;5010;45.080;7.634;2024-01-16T05:54:34;20.00;;;12.85;;
9942;SDS011;5010;45.080;7.634;2024-01-16T05:57:02;15.43;;;10.07;;
9942;SDS011;5010;45.080;7.634;2024-01-16T05:59:30;10.60;;;6.88;;
9942;SDS011;5010;45.080;7.634;2024-01-16T06:01:58;8.82;;;5.50;;
9942;SDS011;5010;45.080;7.634;2024-01-16T06:04:26;10.07;;;4.30;;
9942;SDS011;5010;45.080;7.634;2024-01-16T06:06:53;9.15;;;4.38;;
9942;SDS011;5010;45.080;7.634;2024-01-16T06:09:23;7.45;;;4.53;;
9942;SDS011;5010;45.080;7.634;2024-01-16T06:11:51;10.18;;;4.32;;
9942;SDS011;5010;45.080;7.634;2024-01-16T06:14:18;5.47;;;3.47;;
9942;SDS011;5010;45.080;7.634;2024-01-16T06:16:47;6.10;;;2.63;;
9942;SDS011;5010;45.080;7.634;2024-01-16T06:19:16;5.38;;;2.03;;
9942;SDS011;5010;45.080;7.634;2024-01-16T06:21:44;6.80;;;3.20;;
9942;SDS011;5010;45.080;7.634;2024-01-16T06:24:11;5.90;;;2.17;;
9942;SDS011;5010;45.080;7.634;2024-01-16T06:26:41;4.30;;;2.58;;
9942;SDS011;5010;45.080;7.634;2024-01-16T06:29:09;5.47;;;3.00;;
9942;SDS011;5010;45.080;7.634;2024-01-16T06:31:37;7.38;;;3.65;;
9942;SDS011;5010;45.080;7.634;2024-01-16T06:34:05;5.60;;;3.60;;
9942;SDS011;5010;45.080;7.634;2024-01-16T06:36:34;9.02;;;4.38;;
9942;SDS011;5010;45.080;7.634;2024-01-16T06:39:01;7.47;;;4.53;;
9942;SDS011;5010;45.080;7.634;2024-01-16T06:41:29;6.72;;;5.43;;
9942;SDS011;5010;45.080;7.634;2024-01-16T06:43:59;13.38;;;4.13;;
9942;SDS011;5010;45.080;7.634;2024-01-16T06:46:27;9.10;;;4.10;;
9942;SDS011;5010;45.080;7.634;2024-01-16T06:48:54;8.50;;;4.20;;
9942;SDS011;5010;45.080;7.634;2024-01-16T06:51:22;6.40;;;3.45;;
9942;SDS011;5010;45.080;7.634;2024-01-16T06:53:50;6.55;;;3.80;;
9942;SDS011;5010;45.080;7.634;2024-01-16T06:56:18;6.38;;;3.63;;
9942;SDS011;5010;45.080;7.634;2024-01-16T06:58:46;5.97;;;3.25;;
9942;SDS011;5010;45.080;7.634;2024-01-16T07:01:15;4.95;;;3.10;;
9942;SDS011;5010;45.080;7.634;2024-01-16T07:03:43;7.82;;;3.75;;
9942;SDS011;5010;45.080;7.634;2024-01-16T07:06:11;8.32;;;3.53;;
9942;SDS011;5010;45.080;7.634;2024-01-16T07:08:39;9.02;;;2.72;;
9942;SDS011;5010;45.080;7.634;2024-01-16T07:11:06;11.45;;;3.55;;
9942;SDS011;5010;45.080;7.634;2024-01-16T07:13:38;5.57;;;2.92;;
9942;SDS011;5010;45.080;7.634;2024-01-16T07:16:08;6.68;;;3.63;;
9942;SDS011;5010;45.080;7.634;2024-01-16T07:18:39;5.30;;;3.15;;
9942;SDS011;5010;45.080;7.634;2024-01-16T07:21:15;12.18;;;5.10;;
9942;SDS011;5010;45.080;7.634;2024-01-16T07:23:44;8.48;;;4.15;;
9942;SDS011;5010;45.080;7.634;2024-01-16T07:26:12;8.15;;;5.20;;
9942;SDS011;5010;45.080;7.634;2024-01-16T07:28:39;8.00;;;5.18;;
9942;SDS011;5010;45.080;7.634;2024-01-16T07:31:07;13.82;;;8.07;;
9942;SDS011;5010;45.080;7.634;2024-01-16T07:33:37;13.50;;;8.10;;
9942;SDS011;5010;45.080;7.634;2024-01-16T07:36:07;10.45;;;4.40;;
9942;SDS011;5010;45.080;7.634;2024-01-16T07:38:36;9.02;;;5.35;;
9942;SDS011;5010;45.080;7.634;2024-01-16T07:41:04;11.68;;;5.60;;
9942;SDS011;5010;45.080;7.634;2024-01-16T07:43:32;7.78;;;4.57;;
9942;SDS011;5010;45.080;7.634;2024-01-16T07:46:00;9.88;;;6.93;;
9942;SDS011;5010;45.080;7.634;2024-01-16T07:48:28;13.32;;;5.57;;
9942;SDS011;5010;45.080;7.634;2024-01-16T07:50:57;10.20;;;6.00;;
9942;SDS011;5010;45.080;7.634;2024-01-16T07:53:25;21.92;;;10.90;;
9942;SDS011;5010;45.080;7.634;2024-01-16T07:55:54;18.05;;;12.98;;
9942;SDS011;5010;45.080;7.634;2024-01-16T07:58:22;27.15;;;16.20;;
9942;SDS011;5010;45.080;7.634;2024-01-16T08:00:49;27.35;;;16.35;;
9942;SDS011;5010;45.080;7.634;2024-01-16T08:03:17;28.08;;;16.73;;
9942;SDS011;5010;45.080;7.634;2024-01-16T08:05:45;87.75;;;22.83;;
9942;SDS011;5010;45.080;7.634;2024-01-16T08:08:15;57.08;;;18.85;;
9942;SDS011;5010;45.080;7.634;2024-01-16T08:10:42;36.97;;;17.08;;
9942;SDS011;5010;45.080;7.634;2024-01-16T08:13:10;33.47;;;17.20;;
9942;SDS011;5010;45.080;7.634;2024-01-16T08:15:41;25.95;;;16.55;;
9942;SDS011;5010;45.080;7.634;2024-01-16T08:18:09;19.38;;;15.38;;
9942;SDS011;5010;45.080;7.634;2024-01-16T08:20:37;38.97;;;17.65;;
9942;SDS011;5010;45.080;7.634;2024-01-16T08:23:04;29.13;;;17.40;;
9942;SDS011;5010;45.080;7.634;2024-01-16T08:25:34;34.25;;;17.20;;
9942;SDS011;5010;45.080;7.634;2024-01-16T08:28:02;42.20;;;21.52;;
9942;SDS011;5010;45.080;7.634;2024-01-16T08:30:30;30.63;;;18.98;;
9942;SDS011;5010;45.080;7.634;2024-01-16T08:32:58;34.17;;;19.85;;
9942;SDS011;5010;45.080;7.634;2024-01-16T08:35:26;43.00;;;22.10;;
9942;SDS011;5010;45.080;7.634;2024-01-16T08:37:53;33.85;;;20.10;;
9942;SDS011;5010;45.080;7.634;2024-01-16T08:40:21;34.42;;;18.95;;
9942;SDS011;5010;45.080;7.634;2024-01-16T08:42:51;49.42;;;24.00;;
9942;SDS011;5010;45.080;7.634;2024-01-16T08:45:20;35.97;;;22.40;;
9942;SDS011;5010;45.080;7.634;2024-01-16T08:47:48;41.70;;;22.40;;
9942;SDS011;5010;45.080;7.634;2024-01-16T08:50:16;44.70;;;23.63;;
9942;SDS011;5010;45.080;7.634;2024-01-16T08:52:44;43.28;;;25.88;;
9942;SDS011;5010;45.080;7.634;2024-01-16T08:55:12;39.40;;;24.02;;
9942;SDS011;5010;45.080;7.634;2024-01-16T08:57:40;47.20;;;25.83;;
9942;SDS011;5010;45.080;7.634;2024-01-16T09:00:09;41.40;;;24.27;;
9942;SDS011;5010;45.080;7.634;2024-01-16T09:02:38;40.53;;;23.65;;
9942;SDS011;5010;45.080;7.634;2024-01-16T09:05:06;46.60;;;23.58;;
9942;SDS011;5010;45.080;7.634;2024-01-16T09:07:34;44.65;;;26.05;;
9942;SDS011;5010;45.080;7.634;2024-01-16T09:10:02;40.95;;;23.65;;
9942;SDS011;5010;45.080;7.634;2024-01-16T09:12:31;51.63;;;26.13;;
9942;SDS011;5010;45.080;7.634;2024-01-16T09:14:58;41.78;;;24.27;;
9942;SDS011;5010;45.080;7.634;2024-01-16T09:17:28;39.40;;;22.60;;
9942;SDS011;5010;45.080;7.634;2024-01-16T09:19:56;41.13;;;21.70;;
9942;SDS011;5010;45.080;7.634;2024-01-16T09:22:23;44.97;;;22.73;;
9942;SDS011;5010;45.080;7.634;2024-01-16T09:24:51;34.60;;;22.17;;
9942;SDS011;5010;45.080;7.634;2024-01-16T09:27:19;40.95;;;21.65;;
9942;SDS011;5010;45.080;7.634;2024-01-16T09:29:47;38.75;;;23.20;;
9942;SDS011;5010;45.080;7.634;2024-01-16T09:32:14;32.20;;;18.52;;
9942;SDS011;5010;45.080;7.634;2024-01-16T09:34:44;34.75;;;19.55;;
9942;SDS011;5010;45.080;7.634;2024-01-16T09:37:11;36.10;;;20.15;;
9942;SDS011;5010;45.080;7.634;2024-01-16T09:39:39;37.67;;;23.40;;
9942;SDS011;5010;45.080;7.634;2024-01-16T09:42:08;32.47;;;20.88;;
9942;SDS011;5010;45.080;7.634;2024-01-16T09:44:36;39.55;;;21.40;;
9942;SDS011;5010;45.080;7.634;2024-01-16T09:47:04;36.58;;;19.67;;
9942;SDS011;5010;45.080;7.634;2024-01-16T09:49:32;40.78;;;20.48;;
9942;SDS011;5010;45.080;7.634;2024-01-16T09:52:02;30.95;;;18.92;;
9942;SDS011;5010;45.080;7.634;2024-01-16T09:54:30;43.33;;;20.75;;
9942;SDS011;5010;45.080;7.634;2024-01-16T09:56:58;35.92;;;21.85;;
9942;SDS011;5010;45.080;7.634;2024-01-16T09:59:28;35.65;;;19.63;;
9942;SDS011;5010;45.080;7.634;2024-01-16T10:01:56;31.25;;;18.35;;
9942;SDS011;5010;45.080;7.634;2024-01-16T10:04:26;42.05;;;21.10;;
9942;SDS011;5010;45.080;7.634;2024-01-16T10:06:54;30.52;;;20.63;;
9942;SDS011;5010;45.080;7.634;2024-01-16T10:09:25;42.30;;;19.90;;
9942;SDS011;5010;45.080;7.634;2024-01-16T10:11:53;43.25;;;22.20;;
9942;SDS011;5010;45.080;7.634;2024-01-16T10:14:22;39.63;;;21.20;;
9942;SDS011;5010;45.080;7.634;2024-01-16T10:16:57;34.25;;;20.52;;
9942;SDS011;5010;45.080;7.634;2024-01-16T10:19:28;33.85;;;22.05;;
9942;SDS011;5010;45.080;7.634;2024-01-16T10:22:00;35.33;;;22.83;;
9942;SDS011;5010;45.080;7.634;2024-01-16T10:24:31;40.33;;;23.15;;
9942;SDS011;5010;45.080;7.634;2024-01-16T10:27:01;41.45;;;22.92;;
9942;SDS011;5010;45.080;7.634;2024-01-16T10:29:29;34.08;;;20.15;;
9942;SDS011;5010;45.080;7.634;2024-01-16T10:31:57;39.75;;;23.55;;
9942;SDS011;5010;45.080;7.634;2024-01-16T10:34:25;36.55;;;21.50;;
9942;SDS011;5010;45.080;7.634;2024-01-16T10:36:58;53.72;;;23.35;;
9942;SDS011;5010;45.080;7.634;2024-01-16T10:39:26;37.47;;;22.02;;
9942;SDS011;5010;45.080;7.634;2024-01-16T10:41:56;38.30;;;22.15;;
9942;SDS011;5010;45.080;7.634;2024-01-16T10:44:24;36.38;;;22.90;;
9942;SDS011;5010;45.080;7.634;2024-01-16T10:46:59;49.25;;;26.92;;
9942;SDS011;5010;45.080;7.634;2024-01-16T10:49:37;36.67;;;25.20;;
9942;SDS011;5010;45.080;7.634;2024-01-16T10:52:08;44.92;;;25.17;;
9942;SDS011;5010;45.080;7.634;2024-01-16T10:54:39;39.42;;;23.10;;
9942;SDS011;5010;45.080;7.634;2024-01-16T10:57:11;36.97;;;24.30;;
9942;SDS011;5010;45.080;7.634;2024-01-16T10:59:42;40.00;;;20.98;;
9942;SDS011;5010;45.080;7.634;2024-01-16T11:02:18;37.17;;;25.60;;
9942;SDS011;5010;45.080;7.634;2024-01-16T11:04:47;32.53;;;20.55;;
9942;SDS011;5010;45.080;7.634;2024-01-16T11:07:17;43.85;;;21.95;;
9942;SDS011;5010;45.080;7.634;2024-01-16T11:09:47;34.42;;;20.40;;
9942;SDS011;5010;45.080;7.634;2024-01-16T11:12:18;41.00;;;21.70;;
9942;SDS011;5010;45.080;7.634;2024-01-16T11:14:47;36.88;;;20.52;;
9942;SDS011;5010;45.080;7.634;2024-01-16T11:17:18;41.95;;;26.10;;
9942;SDS011;5010;45.080;7.634;2024-01-16T11:19:46;40.22;;;22.15;;
9942;SDS011;5010;45.080;7.634;2024-01-16T11:22:14;47.08;;;21.17;;
9942;SDS011;5010;45.080;7.634;2024-01-16T11:24:44;36.28;;;22.20;;
9942;SDS011;5010;45.080;7.634;2024-01-16T11:27:22;43.90;;;23.30;;
9942;SDS011;5010;45.080;7.634;2024-01-16T11:29:50;40.25;;;22.63;;
9942;SDS011;5010;45.080;7.634;2024-01-16T11:32:33;36.20;;;21.52;;
9942;SDS011;5010;45.080;7.634;2024-01-16T16:19:48;25.17;;;15.77;;
9942;SDS011;5010;45.080;7.634;2024-01-16T19:01:58;18.15;;;11.27;;
9942;SDS011;5010;45.080;7.634;2024-01-16T19:04:25;32.30;;;14.60;;
9942;SDS011;5010;45.080;7.634;2024-01-16T19:06:54;20.90;;;12.88;;
9942;SDS011;5010;45.080;7.634;2024-01-16T19:09:22;19.10;;;9.25;;
9942;SDS011;5010;45.080;7.634;2024-01-16T19:11:51;20.75;;;14.65;;
9942;SDS011;5010;45.080;7.634;2024-01-16T19:14:19;17.13;;;11.75;;
9942;SDS011;5010;45.080;7.634;2024-01-16T19:16:46;22.45;;;11.43;;
9942;SDS011;5010;45.080;7.634;2024-01-16T19:19:18;22.92;;;11.73;;
9942;SDS011;5010;45.080;7.634;2024-01-16T19:21:50;17.35;;;10.75;;
9942;SDS011;5010;45.080;7.634;2024-01-16T19:24:18;16.95;;;9.35;;
9942;SDS011;5010;45.080;7.634;2024-01-16T19:26:47;25.17;;;12.95;;
9942;SDS011;5010;45.080;7.634;2024-01-16T19:29:15;22.70;;;11.55;;
9942;SDS011;5010;45.080;7.634;2024-01-16T19:31:45;24.10;;;11.65;;
9942;SDS011;5010;45.080;7.634;2024-01-16T19:34:12;18.58;;;11.60;;
9942;SDS011;5010;45.080;7.634;2024-01-16T19:36:41;17.13;;;10.60;;
9942;SDS011;5010;45.080;7.634;2024-01-16T19:39:09;23.83;;;10.85;;
9942;SDS011;5010;45.080;7.634;2024-01-16T19:41:39;22.25;;;12.38;;
9942;SDS011;5010;45.080;7.634;2024-01-16T19:44:08;15.55;;;11.38;;
9942;SDS011;5010;45.080;7.634;2024-01-16T19:46:38;22.92;;;11.63;;
9942;SDS011;5010;45.080;7.634;2024-01-16T19:49:07;21.98;;;11.05;;
9942;SDS011;5010;45.080;7.634;2024-01-16T19:51:35;21.23;;;11.25;;
9942;SDS011;5010;45.080;7.634;2024-01-16T19:54:06;23.45;;;10.73;;
9942;SDS011;5010;45.080;7.634;2024-01-16T19:56:33;26.42;;;12.90;;
9942;SDS011;5010;45.080;7.634;2024-01-16T19:59:02;18.02;;;9.75;;
9942;SDS011;5010;45.080;7.634;2024-01-16T20:01:30;26.70;;;16.40;;
9942;SDS011;5010;45.080;7.634;2024-01-16T20:03:58;19.30;;;11.75;;
9942;SDS011;5010;45.080;7.634;2024-01-16T20:06:27;27.10;;;13.40;;
9942;SDS011;5010;45.080;7.634;2024-01-16T20:08:54;16.08;;;9.27;;
9942;SDS011;5010;45.080;7.634;2024-01-16T20:11:25;21.52;;;13.50;;
9942;SDS011;5010;45.080;7.634;2024-01-16T20:13:54;22.75;;;11.77;;
9942;SDS011;5010;45.080;7.634;2024-01-16T20:16:22;18.77;;;10.57;;
9942;SDS011;5010;45.080;7.634;2024-01-16T20:18:51;24.75;;;13.82;;
9942;SDS011;5010;45.080;7.634;2024-01-16T20:21:20;22.00;;;14.50;;
9942;SDS011;5010;45.080;7.634;2024-01-16T20:23:48;29.02;;;13.38;;
9942;SDS011;5010;45.080;7.634;2024-01-16T20:26:16;28.05;;;15.43;;
9942;SDS011;5010;45.080;7.634;2024-01-16T20:28:46;18.05;;;12.70;;
9942;SDS011;5010;45.080;7.634;2024-01-16T20:31:14;21.10;;;14.48;;
9942;SDS011;5010;45.080;7.634;2024-01-16T20:33:42;19.67;;;11.27;;
9942;SDS011;5010;45.080;7.634;2024-01-16T20:36:11;39.85;;;23.33;;
9942;SDS011;5010;45.080;7.634;2024-01-16T20:38:40;25.33;;;12.55;;
9942;SDS011;5010;45.080;7.634;2024-01-16T20:41:09;26.20;;;13.90;;
9942;SDS011;5010;45.080;7.634;2024-01-16T20:43:36;17.30;;;10.50;;
9942;SDS011;5010;45.080;7.634;2024-01-16T20:46:06;23.45;;;12.30;;
9942;SDS011;5010;45.080;7.634;2024-01-16T20:48:33;18.38;;;9.57;;
9942;SDS011;5010;45.080;7.634;2024-01-16T20:51:01;19.85;;;13.25;;
9942;SDS011;5010;45.080;7.634;2024-01-16T20:53:30;16.58;;;12.20;;
9942;SDS011;5010;45.080;7.634;2024-01-16T20:55:58;18.83;;;11.00;;
9942;SDS011;5010;45.080;7.634;2024-01-16T20:58:26;14.98;;;8.38;;
9942;SDS011;5010;45.080;7.634;2024-01-16T21:00:53;14.98;;;9.52;;
9942;SDS011;5010;45.080;7.634;2024-01-16T21:03:22;17.67;;;10.48;;
9942;SDS011;5010;45.080;7.634;2024-01-16T21:05:53;16.27;;;9.43;;
9942;SDS011;5010;45.080;7.634;2024-01-16T21:08:21;20.02;;;10.18;;
9942;SDS011;5010;45.080;7.634;2024-01-16T21:10:49;21.00;;;12.35;;
9942;SDS011;5010;45.080;7.634;2024-01-16T21:13:17;24.02;;;12.98;;
9942;SDS011;5010;45.080;7.634;2024-01-16T21:15:44;25.10;;;18.55;;
9942;SDS011;5010;45.080;7.634;2024-01-16T21:18:12;29.85;;;16.08;;
9942;SDS011;5010;45.080;7.634;2024-01-16T21:20:42;21.25;;;14.30;;
9942;SDS011;5010;45.080;7.634;2024-01-16T21:23:10;22.65;;;12.18;;
9942;SDS011;5010;45.080;7.634;2024-01-16T21:25:38;17.60;;;10.07;;
9942;SDS011;5010;45.080;7.634;2024-01-16T21:28:06;16.80;;;10.32;;
9942;SDS011;5010;45.080;7.634;2024-01-16T21:30:35;17.60;;;8.73;;
9942;SDS011;5010;45.080;7.634;2024-01-16T21:33:03;21.33;;;13.23;;
9942;SDS011;5010;45.080;7.634;2024-01-16T21:35:30;24.23;;;10.25;;
9942;SDS011;5010;45.080;7.634;2024-01-16T21:38:00;21.48;;;12.25;;
9942;SDS011;5010;45.080;7.634;2024-01-16T21:40:29;16.50;;;11.48;;
9942;SDS011;5010;45.080;7.634;2024-01-16T21:42:56;17.05;;;11.18;;
9942;SDS011;5010;45.080;7.634;2024-01-16T21:45:24;17.67;;;10.82;;
9942;SDS011;5010;45.080;7.634;2024-01-16T21:47:51;18.92;;;10.43;;
9942;SDS011;5010;45.080;7.634;2024-01-16T21:50:19;20.60;;;11.55;;
9942;SDS011;5010;45.080;7.634;2024-01-16T21:52:47;23.75;;;10.35;;
9942;SDS011;5010;45.080;7.634;2024-01-16T21:55:17;16.27;;;11.25;;
9942;SDS011;5010;45.080;7.634;2024-01-16T21:57:47;16.30;;;8.98;;
9942;SDS011;5010;45.080;7.634;2024-01-16T22:00:15;14.00;;;10.32;;
9942;SDS011;5010;45.080;7.634;2024-01-16T22:02:43;21.75;;;12.80;;
9942;SDS011;5010;45.080;7.634;2024-01-16T22:05:10;18.55;;;9.07;;
9942;SDS011;5010;45.080;7.634;2024-01-16T22:07:38;25.40;;;10.93;;
9942;SDS011;5010;45.080;7.634;2024-01-16T22:10:06;46.25;;;23.48;;
9942;SDS011;5010;45.080;7.634;2024-01-16T22:12:36;21.13;;;11.77;;
9942;SDS011;5010;45.080;7.634;2024-01-16T22:15:04;20.13;;;11.15;;
9942;SDS011;5010;45.080;7.634;2024-01-16T22:17:33;26.05;;;15.27;;
9942;SDS011;5010;45.080;7.634;2024-01-16T22:20:00;20.98;;;13.00;;
9942;SDS011;5010;45.080;7.634;2024-01-16T22:22:30;20.70;;;10.95;;
9942;SDS011;5010;45.080;7.634;2024-01-16T22:24:58;20.88;;;10.45;;
9942;SDS011;5010;45.080;7.634;2024-01-16T22:27:26;16.35;;;10.65;;
9942;SDS011;5010;45.080;7.634;2024-01-16T22:29:55;20.25;;;10.63;;
9942;SDS011;5010;45.080;7.634;2024-01-16T22:32:22;22.05;;;10.63;;